Pagrindinis puslapis
METAR-TAF:

METAR-TAF

Oro uostai :

Varadero, Kuba

platuma: 23-08N, ilguma: 081-17W, Aukštis: 3 m

Dabartinis oras

Ataskaita buvo paskelbta 1 valandą ir 13 minutes, ne 18:50 UTC
Vėjas 4 kt iš Rytų/Pietryčių, svyruoja nuo Šiaurės Rytų ir Pietų
Temperatūra 31°C
Drėgmė 52%
Slėgis 1017 hPa
Matomumas: 9000 m
Su prošvaistėmis ne aukštis 2000 ft

METAR: MUVR 261850Z 12004KT 050V190 9000 BKN020 31/20 Q1017

Laikas: 16:03 (20:03 UTC)

Prognozė

Ataskaita buvo paskelbta 3 valandos ir 3 minutes, ne 17:00 UTC
Prognozė galioja nuo 26 metu 18 UTC su 27 metu 18 UTC
Vėjas 12 kt iš Rytų/Šiaurės Rytų
Matomumas: 9000 m
Išsisklaidę debesys ne aukštis 2000 ft
Tapsmas
nuo 27 metu 01 UTC su 27 metu 03 UTC
Vėjas 3 kt nuo kintamojo kryptimis

TAF: MUVR 261700Z 2618/2718 06012KT 9000 SCT020 BECMG 2701/2703 VRB03KT

Orai ataskaitas ir orų prognozės (METAR, TAF).

turimą stotys yra geltonos ir raudonos taškus žemėlapyje.

Perkelti pele per norėdami pamatyti stoties vardą.

Tada spustelėkite, norėdami matyti oro stebėjimo ir prognozės.

Norėdami pakeisti žemėlapį: spustelėkite ant žalios mygtukų su juodo kryžiaus žemyn,; žalią mygtuką su brūkšneliu, jei norite nutolinti; arba žalių rodyklių gretimoms žemėlapius.


METAR-TAF: